createdAt,value
2023-02-07T00:01:44.165Z,0.20
2023-02-07T00:04:13.750Z,1.10
2023-02-07T00:06:42.116Z,0.00
2023-02-07T00:09:12.834Z,-0.30
2023-02-07T00:11:41.636Z,0.00
2023-02-07T00:14:12.397Z,0.20
2023-02-07T00:16:40.986Z,-0.50
2023-02-07T00:19:11.725Z,-0.30
2023-02-07T00:21:41.295Z,-0.70
2023-02-07T00:24:09.569Z,-0.70
2023-02-07T00:26:37.735Z,-0.70
2023-02-07T00:29:06.555Z,-0.70
2023-02-07T00:31:36.418Z,-0.80
2023-02-07T00:34:06.594Z,-1.00
2023-02-07T00:36:36.431Z,-0.80
2023-02-07T00:39:09.159Z,-0.40
2023-02-07T00:41:37.542Z,-0.20
2023-02-07T00:44:06.341Z,-0.50
2023-02-07T00:46:35.396Z,-0.40
2023-02-07T00:49:03.804Z,-0.10
2023-02-07T00:51:32.359Z,-0.40
2023-02-07T00:54:00.977Z,-0.70
2023-02-07T00:56:31.432Z,-0.40
2023-02-07T00:58:59.862Z,-1.00
2023-02-07T01:01:28.644Z,-0.50
2023-02-07T01:03:56.885Z,-0.90
2023-02-07T01:06:25.299Z,-1.00
2023-02-07T01:08:57.819Z,-1.00
2023-02-07T01:11:26.008Z,0.00
2023-02-07T01:16:28.174Z,-1.20
2023-02-07T01:18:56.635Z,-1.20
2023-02-07T01:21:27.283Z,-0.40
2023-02-07T01:23:57.075Z,-0.80
2023-02-07T01:26:25.802Z,-1.20
2023-02-07T01:28:56.524Z,-0.90
2023-02-07T01:31:25.434Z,-0.50
2023-02-07T01:33:57.920Z,-1.00
2023-02-07T01:36:27.370Z,-1.20
2023-02-07T01:38:56.375Z,-1.30
2023-02-07T01:41:26.486Z,-1.30
2023-02-07T01:46:26.138Z,-1.30
2023-02-07T01:48:56.645Z,-1.50
2023-02-07T01:51:26.453Z,-1.40
2023-02-07T01:53:56.211Z,-1.40
2023-02-07T01:56:31.657Z,-1.40
2023-02-07T01:59:02.352Z,-1.40
2023-02-07T02:01:30.727Z,-0.90
2023-02-07T02:03:58.982Z,-1.40
2023-02-07T02:06:30.385Z,-1.40
2023-02-07T02:09:01.026Z,-1.30
2023-02-07T02:14:25.279Z,-0.80
2023-02-07T02:20:06.553Z,-1.20
2023-02-07T02:23:03.754Z,-1.00
2023-02-07T02:25:52.287Z,-1.10
2023-02-07T02:31:26.640Z,-1.40
2023-02-07T02:33:58.642Z,-1.20
2023-02-07T02:36:34.384Z,-1.10
2023-02-07T02:41:39.715Z,-1.60
2023-02-07T02:44:13.038Z,-1.50
2023-02-07T02:46:42.764Z,-1.20
2023-02-07T03:45:13.871Z,-1.80
2023-02-07T03:47:42.105Z,-1.70
2023-02-07T03:50:12.208Z,-0.40
2023-02-07T03:52:40.638Z,-0.70
2023-02-07T03:55:09.824Z,-1.60
2023-02-07T03:57:38.536Z,-1.80
2023-02-07T04:00:08.490Z,-1.90
2023-02-07T04:02:36.621Z,-2.00
2023-02-07T04:05:04.810Z,-1.70
2023-02-07T04:07:34.639Z,-1.50
2023-02-07T04:10:03.493Z,-2.00
2023-02-07T04:12:32.988Z,-1.50
2023-02-07T04:15:01.230Z,-1.80
2023-02-07T04:17:31.399Z,-2.10
2023-02-07T04:20:01.662Z,-1.80
2023-02-07T04:22:30.446Z,-1.80
2023-02-07T04:24:59.927Z,-1.90
2023-02-07T04:27:28.132Z,-2.00
2023-02-07T04:29:56.378Z,-1.60
2023-02-07T04:32:24.550Z,-1.90
2023-02-07T04:34:52.710Z,-1.50
2023-02-07T04:37:20.834Z,-2.40
2023-02-07T04:39:48.952Z,-2.20
2023-02-07T04:42:18.474Z,-2.50
2023-02-07T04:44:46.573Z,-2.20
2023-02-07T04:47:14.797Z,-2.80
2023-02-07T04:49:42.987Z,-2.60
2023-02-07T04:52:11.147Z,-2.80
2023-02-07T04:54:39.326Z,-2.80
2023-02-07T04:57:07.429Z,-2.70
2023-02-07T04:59:36.858Z,-2.20
2023-02-07T05:02:04.986Z,-2.50
2023-02-07T05:04:33.096Z,-3.10
2023-02-07T05:07:03.438Z,-3.30
2023-02-07T05:09:31.552Z,-3.40
2023-02-07T05:11:59.772Z,-3.20
2023-02-07T05:14:27.868Z,-3.30
2023-02-07T05:16:57.449Z,-3.30
2023-02-07T05:19:25.576Z,-3.40
2023-02-07T05:21:53.859Z,-3.40
2023-02-07T05:24:22.250Z,-3.40
2023-02-07T05:26:50.337Z,-3.70
2023-02-07T05:29:18.458Z,-3.40
2023-02-07T05:32:05.925Z,-3.40
2023-02-07T05:34:37.149Z,-3.40
2023-02-07T05:37:05.236Z,-3.50
2023-02-07T05:39:33.406Z,-3.20
2023-02-07T05:42:01.573Z,-3.40
2023-02-07T05:44:29.719Z,-3.40
2023-02-07T05:46:57.863Z,-3.40
2023-02-07T05:49:26.097Z,-3.40
2023-02-07T05:51:55.614Z,-3.20
2023-02-07T05:54:23.979Z,-3.30
2023-02-07T05:56:52.266Z,-3.30
2023-02-07T05:59:20.435Z,-3.50
2023-02-07T06:01:48.538Z,-3.70
2023-02-07T06:04:16.677Z,-3.90
2023-02-07T06:06:44.832Z,-4.00
2023-02-07T06:09:14.442Z,-4.00
2023-02-07T06:11:42.633Z,-3.30
2023-02-07T06:14:10.821Z,-3.80
2023-02-07T06:16:38.998Z,-3.70
2023-02-07T06:19:07.105Z,-3.70
2023-02-07T06:21:46.121Z,-3.90
2023-02-07T06:24:16.734Z,-4.20
2023-02-07T06:26:46.775Z,-4.10
2023-02-07T06:29:15.328Z,-4.10
2023-02-07T06:31:43.559Z,-4.30
2023-02-07T06:34:11.857Z,-4.00
2023-02-07T06:36:40.041Z,-4.70
2023-02-07T06:39:08.435Z,-4.30
2023-02-07T06:41:38.128Z,-4.50
2023-02-07T06:44:06.424Z,-4.90
2023-02-07T06:46:35.005Z,-4.40
2023-02-07T06:49:03.163Z,-4.30
2023-02-07T06:51:31.325Z,-4.40
2023-02-07T06:53:59.835Z,-4.30
2023-02-07T06:56:28.001Z,-4.10
2023-02-07T06:58:57.586Z,-4.00
2023-02-07T07:01:25.761Z,-4.10
2023-02-07T07:03:54.483Z,-4.20
2023-02-07T07:06:22.664Z,-4.10
2023-02-07T07:08:51.817Z,-4.20
2023-02-07T07:11:20.221Z,-3.80
2023-02-07T07:13:48.309Z,-4.20
2023-02-07T07:16:17.942Z,-4.30
2023-02-07T07:18:46.269Z,-4.10
2023-02-07T07:21:14.470Z,-4.10
2023-02-07T07:23:42.657Z,-4.00
2023-02-07T07:26:10.813Z,-3.80
2023-02-07T07:28:38.966Z,-4.00
2023-02-07T07:31:09.228Z,-3.90
2023-02-07T07:36:09.818Z,-3.80
2023-02-07T07:38:38.326Z,-3.90
2023-02-07T07:41:07.036Z,-3.70
2023-02-07T07:43:37.149Z,-3.70
2023-02-07T07:46:07.660Z,-3.80
2023-02-07T07:48:36.061Z,-3.30
2023-02-07T07:51:06.173Z,-3.40
2023-02-07T07:53:34.282Z,-3.50
2023-02-07T07:56:02.381Z,-3.50
2023-02-07T07:58:30.558Z,-3.30
2023-02-07T08:00:58.905Z,-3.50
2023-02-07T08:03:27.183Z,-3.50
2023-02-07T08:05:56.016Z,-3.70
2023-02-07T08:08:25.602Z,-3.30
2023-02-07T08:10:53.774Z,-2.60
2023-02-07T08:13:21.991Z,-3.10
2023-02-07T08:15:50.784Z,-3.00
2023-02-07T08:18:18.948Z,-2.90
2023-02-07T08:20:47.106Z,-2.80
2023-02-07T08:23:15.245Z,-2.80
2023-02-07T08:25:46.484Z,-2.70
2023-02-07T08:28:14.898Z,-2.60
2023-02-07T08:30:43.163Z,-1.80
2023-02-07T08:33:11.367Z,-2.30
2023-02-07T08:35:39.555Z,-2.40
2023-02-07T08:38:07.982Z,-2.50
2023-02-07T08:40:37.623Z,-2.10
2023-02-07T08:43:12.235Z,-1.80
2023-02-07T08:45:40.640Z,-2.20
2023-02-07T08:48:09.303Z,-2.10
2023-02-07T08:50:37.933Z,-2.10
2023-02-07T08:53:06.192Z,-2.00
2023-02-07T08:55:34.369Z,-2.30
2023-02-07T08:58:02.559Z,-1.80
2023-02-07T09:00:32.030Z,-1.70
2023-02-07T09:03:00.119Z,-1.60
2023-02-07T09:05:28.290Z,-1.60
2023-02-07T09:07:56.439Z,-1.70
2023-02-07T09:10:26.291Z,-1.90
2023-02-07T09:12:54.522Z,-1.40
2023-02-07T09:15:22.621Z,-1.40
2023-02-07T09:17:52.136Z,-1.30
2023-02-07T09:20:20.473Z,-1.20
2023-02-07T09:23:06.117Z,-1.30
2023-02-07T09:25:34.347Z,-1.10
2023-02-07T09:28:02.569Z,-1.10
2023-02-07T09:30:30.721Z,-1.00
2023-02-07T09:33:00.342Z,-0.90
2023-02-07T09:35:28.550Z,-0.90
2023-02-07T09:37:56.966Z,-0.20
2023-02-07T09:40:25.478Z,-0.70
2023-02-07T09:42:59.694Z,-0.60
2023-02-07T09:45:32.645Z,-0.60
2023-02-07T09:48:10.171Z,-0.60
2023-02-07T09:50:45.970Z,-0.30
2023-02-07T09:53:17.280Z,-0.50
2023-02-07T09:55:50.365Z,-0.30
2023-02-07T09:58:21.504Z,-0.40
2023-02-07T10:00:59.564Z,-0.30
2023-02-07T10:03:29.736Z,-0.40
2023-02-07T10:06:09.191Z,-0.30
2023-02-07T10:08:46.337Z,0.00
2023-02-07T10:11:18.849Z,0.10
2023-02-07T10:14:05.152Z,-0.30
2023-02-07T10:16:49.583Z,-0.20
2023-02-07T10:19:32.736Z,0.00
2023-02-07T10:22:09.585Z,0.00
2023-02-07T10:24:57.394Z,0.20
2023-02-07T10:27:31.636Z,0.30
2023-02-07T10:30:10.263Z,0.20
2023-02-07T10:32:40.054Z,0.10
2023-02-07T10:35:18.489Z,0.30
2023-02-07T10:37:48.207Z,0.30
2023-02-07T10:40:22.105Z,0.30
2023-02-07T10:43:04.436Z,1.30
2023-02-07T10:45:32.812Z,0.40
2023-02-07T10:48:00.969Z,0.80
2023-02-07T10:50:30.857Z,0.40
2023-02-07T10:53:00.279Z,0.50
2023-02-07T10:55:39.107Z,0.60
2023-02-07T10:58:21.147Z,1.30
2023-02-07T11:00:52.252Z,0.70
2023-02-07T11:03:21.984Z,0.80
2023-02-07T11:05:57.867Z,0.90
2023-02-07T11:08:28.542Z,1.80
2023-02-07T11:10:58.682Z,1.10
2023-02-07T11:13:29.239Z,0.80
2023-02-07T11:16:04.040Z,0.90
2023-02-07T11:18:39.444Z,0.80
2023-02-07T11:21:23.732Z,1.50
2023-02-07T11:26:22.793Z,1.10
2023-02-07T11:28:54.491Z,1.40
2023-02-07T11:31:31.653Z,1.10
2023-02-07T11:34:11.334Z,1.60
2023-02-07T11:36:40.889Z,2.00
2023-02-07T11:39:16.977Z,1.20
2023-02-07T11:41:55.514Z,1.30
2023-02-07T11:44:26.113Z,1.10
2023-02-07T11:46:58.052Z,1.20
2023-02-07T11:49:29.134Z,1.60
2023-02-07T11:52:01.600Z,1.40
2023-02-07T11:54:32.203Z,1.60
2023-02-07T11:57:04.296Z,1.50
2023-02-07T11:59:34.740Z,2.00
2023-02-07T12:02:23.738Z,1.50
2023-02-07T12:04:54.780Z,1.50
2023-02-07T12:07:27.945Z,1.90
2023-02-07T12:09:59.101Z,2.00
2023-02-07T12:12:35.506Z,1.70
2023-02-07T12:15:10.262Z,1.70
2023-02-07T12:17:52.756Z,1.80
2023-02-07T12:20:26.014Z,2.10
2023-02-07T12:23:21.545Z,2.30
2023-02-07T12:25:56.285Z,2.20
2023-02-07T12:28:32.572Z,2.10
2023-02-07T12:31:06.730Z,1.90
2023-02-07T12:33:42.030Z,2.20
2023-02-07T12:36:16.270Z,1.90
2023-02-07T12:38:49.266Z,1.70
2023-02-07T12:41:24.477Z,2.00
2023-02-07T12:44:03.196Z,2.70
2023-02-07T12:46:40.462Z,2.70
2023-02-07T12:49:40.424Z,2.40
2023-02-07T12:52:21.410Z,2.20
2023-02-07T12:55:04.330Z,2.20
2023-02-07T12:57:38.824Z,3.40
2023-02-07T13:00:14.043Z,2.30
2023-02-07T13:02:55.482Z,2.40
2023-02-07T13:06:02.585Z,2.50
2023-02-07T13:08:42.175Z,2.40
2023-02-07T13:11:21.669Z,2.40
2023-02-07T13:14:00.520Z,2.70
2023-02-07T13:16:35.936Z,2.80
2023-02-07T13:19:12.485Z,3.30
2023-02-07T13:21:48.665Z,2.30
2023-02-07T13:24:21.879Z,2.40
2023-02-07T13:26:55.534Z,2.50
2023-02-07T13:29:25.665Z,2.50
2023-02-07T13:31:57.309Z,2.50
2023-02-07T13:34:28.978Z,2.90
2023-02-07T13:37:00.754Z,3.10
2023-02-07T13:39:47.043Z,2.70
2023-02-07T13:42:24.885Z,2.60
2023-02-07T13:44:59.795Z,2.80
2023-02-07T13:47:54.520Z,3.00
2023-02-07T13:50:40.344Z,2.80
2023-02-07T13:53:22.735Z,3.00
2023-02-07T13:55:51.235Z,3.70
2023-02-07T13:59:11.732Z,3.00
2023-02-07T14:01:52.766Z,3.10
2023-02-07T14:04:22.592Z,3.20
2023-02-07T14:07:03.729Z,3.50
2023-02-07T14:09:35.481Z,3.20
2023-02-07T14:12:06.342Z,3.80
2023-02-07T14:14:39.744Z,3.40
2023-02-07T14:17:11.538Z,3.50
2023-02-07T14:19:55.391Z,3.60
2023-02-07T14:25:21.007Z,3.40
